createdAt,value
2017-12-23T00:00:11.924Z,1.27
2017-12-23T00:02:38.352Z,1.29
2017-12-23T00:05:04.741Z,1.52
2017-12-23T00:07:31.146Z,1.33
2017-12-23T00:09:57.568Z,1.23
2017-12-23T00:12:24.013Z,1.32
2017-12-23T00:14:50.450Z,1.44
2017-12-23T00:17:16.837Z,1.23
2017-12-23T00:19:43.221Z,1.32
2017-12-23T00:22:09.682Z,1.39
2017-12-23T00:24:36.138Z,1.26
2017-12-23T00:27:03.169Z,1.29
2017-12-23T00:29:29.570Z,1.24
2017-12-23T00:31:55.969Z,1.25
2017-12-23T00:34:30.524Z,1.20
2017-12-23T00:36:56.870Z,1.24
2017-12-23T00:39:23.312Z,1.20
2017-12-23T00:41:49.728Z,1.28
2017-12-23T00:44:16.146Z,1.27
2017-12-23T00:46:42.508Z,1.09
2017-12-23T00:49:09.021Z,0.99
2017-12-23T00:51:35.382Z,1.07
2017-12-23T00:54:01.744Z,1.09
2017-12-23T00:56:28.144Z,0.95
2017-12-23T00:58:54.539Z,1.01
2017-12-23T01:01:21.028Z,1.04
2017-12-23T01:03:47.421Z,1.25
2017-12-23T01:06:13.805Z,1.32
2017-12-23T01:08:40.205Z,1.37
2017-12-23T01:11:06.708Z,1.41
2017-12-23T01:13:33.117Z,1.23
2017-12-23T01:15:59.525Z,1.26
2017-12-23T01:18:25.978Z,1.27
2017-12-23T01:20:52.393Z,1.32
2017-12-23T01:23:18.821Z,1.20
2017-12-23T01:25:45.241Z,1.29
2017-12-23T01:28:11.636Z,1.30
2017-12-23T01:30:38.030Z,1.21
2017-12-23T01:33:04.481Z,1.25
2017-12-23T01:35:30.920Z,1.04
2017-12-23T01:37:57.324Z,1.19
2017-12-23T01:40:23.768Z,1.11
2017-12-23T01:42:50.193Z,1.20
2017-12-23T01:45:16.571Z,1.32
2017-12-23T01:47:43.013Z,1.34
2017-12-23T01:50:09.426Z,1.25
2017-12-23T01:52:35.857Z,1.24
2017-12-23T01:55:02.346Z,1.09
2017-12-23T01:57:28.768Z,1.12
2017-12-23T01:59:55.153Z,1.21
2017-12-23T02:02:21.569Z,1.07
2017-12-23T02:04:47.973Z,1.19
2017-12-23T02:07:14.352Z,1.28
2017-12-23T02:09:40.886Z,1.14
2017-12-23T02:12:07.317Z,1.29
2017-12-23T02:14:33.716Z,1.25
2017-12-23T02:17:00.132Z,1.31
2017-12-23T02:19:26.525Z,1.34
2017-12-23T02:21:52.949Z,1.18
2017-12-23T02:24:19.341Z,1.17
2017-12-23T02:26:45.705Z,1.23
2017-12-23T02:29:12.097Z,1.25
2017-12-23T02:31:38.572Z,1.48
2017-12-23T02:34:05.019Z,1.38
2017-12-23T02:36:31.416Z,1.60
2017-12-23T02:38:57.893Z,1.67
2017-12-23T02:41:24.397Z,1.58
2017-12-23T02:43:50.860Z,1.59
2017-12-23T02:46:17.345Z,1.61
2017-12-23T02:48:43.677Z,1.54
2017-12-23T02:51:10.105Z,1.80
2017-12-23T02:53:36.542Z,1.76
2017-12-23T02:56:02.970Z,1.65
2017-12-23T02:58:29.354Z,1.69
2017-12-23T03:00:55.788Z,1.53
2017-12-23T03:03:22.141Z,1.55
2017-12-23T03:05:48.625Z,1.50
2017-12-23T03:08:15.217Z,1.43
2017-12-23T03:10:41.624Z,1.69
2017-12-23T03:13:08.025Z,1.36
2017-12-23T03:15:34.469Z,1.48
2017-12-23T03:18:00.836Z,1.52
2017-12-23T03:20:27.204Z,1.50
2017-12-23T03:22:53.668Z,1.46
2017-12-23T03:25:20.074Z,1.39
2017-12-23T03:27:46.520Z,1.34
2017-12-23T03:30:12.979Z,1.58
2017-12-23T03:32:39.391Z,1.37
2017-12-23T03:35:05.801Z,1.41
2017-12-23T03:37:32.252Z,1.23
2017-12-23T03:39:58.669Z,0.92
2017-12-23T03:42:25.123Z,1.36
2017-12-23T03:44:51.619Z,1.39
2017-12-23T03:47:17.981Z,1.38
2017-12-23T03:49:44.336Z,1.35
2017-12-23T03:52:10.725Z,1.32
2017-12-23T03:54:37.097Z,1.49
2017-12-23T03:57:03.513Z,1.49
2017-12-23T03:59:29.905Z,1.54
2017-12-23T04:01:56.305Z,1.52
2017-12-23T04:04:22.686Z,1.48
2017-12-23T04:06:49.101Z,1.47
2017-12-23T04:09:15.453Z,1.60
2017-12-23T04:11:41.903Z,1.66
2017-12-23T04:14:08.425Z,1.56
2017-12-23T04:16:34.856Z,1.69
2017-12-23T04:19:01.329Z,1.81
2017-12-23T04:21:27.766Z,1.59
2017-12-23T04:23:54.141Z,1.62
2017-12-23T04:26:20.573Z,1.51
2017-12-23T04:28:47.017Z,1.74
2017-12-23T04:31:13.391Z,1.81
2017-12-23T04:33:39.811Z,1.88
2017-12-23T04:36:06.305Z,1.78
2017-12-23T04:38:32.692Z,1.83
2017-12-23T04:40:59.116Z,1.92
2017-12-23T04:43:25.501Z,1.87
2017-12-23T04:45:51.908Z,1.89
2017-12-23T04:48:18.308Z,2.04
2017-12-23T04:50:44.716Z,1.89
2017-12-23T04:53:11.140Z,1.88
2017-12-23T04:55:37.541Z,1.84
2017-12-23T04:58:04.034Z,1.94
2017-12-23T05:00:30.425Z,2.10
2017-12-23T05:02:56.857Z,2.01
2017-12-23T05:05:23.260Z,2.09
2017-12-23T05:07:49.634Z,2.08
2017-12-23T05:10:15.997Z,2.04
2017-12-23T05:12:42.456Z,2.15
2017-12-23T05:15:08.876Z,2.20
2017-12-23T05:17:35.269Z,2.16
2017-12-23T05:20:01.729Z,2.16
2017-12-23T05:22:28.125Z,2.03
2017-12-23T05:24:54.485Z,2.09
2017-12-23T05:27:20.970Z,2.12
2017-12-23T05:29:47.313Z,2.15
2017-12-23T05:32:13.688Z,2.18
2017-12-23T05:34:40.078Z,2.10
2017-12-23T05:37:07.001Z,1.93
2017-12-23T05:39:33.377Z,2.06
2017-12-23T05:41:59.793Z,2.11
2017-12-23T05:44:26.228Z,2.13
2017-12-23T05:46:52.596Z,2.10
2017-12-23T05:49:19.010Z,2.15
2017-12-23T05:51:45.357Z,2.10
2017-12-23T05:54:11.714Z,2.29
2017-12-23T05:56:38.205Z,2.12
2017-12-23T05:59:04.579Z,1.97
2017-12-23T06:01:30.963Z,1.99
2017-12-23T06:03:57.472Z,2.09
2017-12-23T06:06:23.901Z,2.13
2017-12-23T06:08:50.384Z,2.26
2017-12-23T06:11:16.931Z,2.37
2017-12-23T06:13:43.364Z,2.36
2017-12-23T06:16:09.738Z,2.44
2017-12-23T06:18:36.143Z,2.38
2017-12-23T06:21:02.557Z,2.38
2017-12-23T06:23:28.921Z,2.35
2017-12-23T06:25:55.326Z,2.32
2017-12-23T06:28:21.837Z,2.35
2017-12-23T06:30:48.229Z,2.29
2017-12-23T06:33:14.702Z,2.39
2017-12-23T06:35:41.109Z,2.31
2017-12-23T06:38:07.517Z,2.39
2017-12-23T06:40:34.013Z,2.44
2017-12-23T06:43:00.379Z,2.61
2017-12-23T06:45:26.777Z,2.62
2017-12-23T06:47:53.217Z,2.44
2017-12-23T06:50:19.617Z,2.42
2017-12-23T06:52:46.005Z,2.71
2017-12-23T06:55:12.462Z,2.81
2017-12-23T06:57:38.853Z,2.86
2017-12-23T07:00:05.201Z,2.79
2017-12-23T07:02:31.669Z,2.86
2017-12-23T07:04:58.121Z,2.88
2017-12-23T07:07:24.485Z,2.91
2017-12-23T07:09:50.977Z,3.01
2017-12-23T07:12:17.466Z,3.05
2017-12-23T07:14:43.837Z,2.92
2017-12-23T07:17:10.242Z,2.64
2017-12-23T07:19:36.593Z,2.87
2017-12-23T07:22:02.974Z,2.93
2017-12-23T07:24:29.393Z,3.10
2017-12-23T07:26:55.740Z,2.80
2017-12-23T07:29:22.096Z,3.00
2017-12-23T07:31:48.522Z,3.09
2017-12-23T07:34:14.894Z,3.20
2017-12-23T07:36:41.269Z,3.27
2017-12-23T07:39:07.781Z,3.29
2017-12-23T07:41:34.199Z,3.26
2017-12-23T07:44:00.596Z,3.37
2017-12-23T07:46:27.065Z,3.35
2017-12-23T07:48:53.481Z,3.28
2017-12-23T07:51:19.892Z,3.29
2017-12-23T07:53:46.289Z,3.22
2017-12-23T07:56:12.664Z,3.29
2017-12-23T07:58:39.049Z,3.26
2017-12-23T08:01:05.504Z,3.23
2017-12-23T08:03:31.879Z,3.38
2017-12-23T08:05:58.368Z,3.46
2017-12-23T08:08:24.881Z,3.46
2017-12-23T08:10:51.313Z,3.54
2017-12-23T08:13:17.744Z,3.68
2017-12-23T08:15:44.177Z,3.74
2017-12-23T08:18:10.570Z,3.72
2017-12-23T08:20:36.994Z,3.69
2017-12-23T08:23:03.424Z,3.61
2017-12-23T08:25:29.793Z,3.76
2017-12-23T08:27:56.198Z,3.86
2017-12-23T08:30:22.601Z,3.82
2017-12-23T08:32:48.981Z,3.84
2017-12-23T08:35:15.406Z,3.91
2017-12-23T08:37:41.923Z,4.03
2017-12-23T08:40:08.306Z,4.02
2017-12-23T08:42:34.825Z,4.02
2017-12-23T08:45:01.221Z,4.09
2017-12-23T08:47:27.609Z,3.96
2017-12-23T08:49:53.989Z,3.87
2017-12-23T08:52:20.389Z,3.92
2017-12-23T08:54:46.752Z,4.11
2017-12-23T08:57:14.953Z,4.15
2017-12-23T08:59:41.436Z,4.14
2017-12-23T09:02:07.814Z,4.13
2017-12-23T09:04:34.209Z,4.12
2017-12-23T09:07:00.664Z,4.10
2017-12-23T09:09:27.060Z,4.11
2017-12-23T09:11:53.494Z,4.17
2017-12-23T09:14:19.886Z,4.20
2017-12-23T09:16:46.333Z,4.14
2017-12-23T09:19:12.735Z,4.16
2017-12-23T09:21:39.156Z,4.21
2017-12-23T09:24:05.510Z,4.23
2017-12-23T09:26:31.931Z,4.21
2017-12-23T09:28:58.381Z,4.32
2017-12-23T09:31:24.782Z,4.44
2017-12-23T09:33:51.113Z,4.36
2017-12-23T09:36:17.526Z,4.37
2017-12-23T09:38:43.891Z,4.39
2017-12-23T09:41:10.270Z,4.40
2017-12-23T09:43:36.770Z,4.44
2017-12-23T09:46:03.108Z,4.43
2017-12-23T09:48:29.525Z,4.40
2017-12-23T09:50:55.966Z,4.46
2017-12-23T09:53:22.349Z,4.56
2017-12-23T09:55:48.737Z,4.66
2017-12-23T09:58:15.152Z,4.79
2017-12-23T10:00:41.525Z,4.83
2017-12-23T10:03:07.967Z,4.84
2017-12-23T10:05:34.421Z,4.85
2017-12-23T10:08:00.889Z,4.88
2017-12-23T10:10:27.301Z,5.02
2017-12-23T10:12:53.709Z,5.13
2017-12-23T10:15:20.153Z,5.22
2017-12-23T10:17:46.837Z,5.23
2017-12-23T10:20:13.282Z,5.25
2017-12-23T10:22:39.662Z,5.25
2017-12-23T10:25:06.066Z,5.37
2017-12-23T10:27:32.557Z,5.28
2017-12-23T10:29:58.966Z,5.31
2017-12-23T10:32:25.337Z,5.47
2017-12-23T10:34:51.745Z,5.41
2017-12-23T10:37:18.144Z,5.41
2017-12-23T10:39:44.507Z,5.37
2017-12-23T10:42:10.893Z,5.32
2017-12-23T10:44:37.321Z,5.22
2017-12-23T10:47:03.692Z,5.20
2017-12-23T10:49:30.149Z,5.33
2017-12-23T10:51:56.497Z,5.32
2017-12-23T10:54:22.937Z,5.42
2017-12-23T10:56:49.388Z,5.50
2017-12-23T10:59:15.749Z,5.43
2017-12-23T11:01:42.150Z,5.58
2017-12-23T11:04:08.649Z,5.52
2017-12-23T11:06:35.115Z,5.51
2017-12-23T11:09:01.513Z,5.58
2017-12-23T11:11:27.974Z,5.61
2017-12-23T11:13:54.375Z,5.58
2017-12-23T11:16:20.757Z,5.39
2017-12-23T11:18:47.175Z,5.47
2017-12-23T11:21:13.566Z,5.50
2017-12-23T11:23:39.949Z,5.50
2017-12-23T11:26:06.413Z,5.58
2017-12-23T11:28:32.866Z,5.53
2017-12-23T11:30:59.230Z,5.57
2017-12-23T11:33:25.815Z,5.53
2017-12-23T11:35:52.375Z,5.67
2017-12-23T11:38:18.825Z,5.63
2017-12-23T11:40:45.315Z,5.66
2017-12-23T11:43:11.725Z,5.55
2017-12-23T11:45:38.147Z,5.51
2017-12-23T11:48:04.618Z,5.56
2017-12-23T11:50:30.981Z,5.66
2017-12-23T11:52:57.426Z,5.65
2017-12-23T11:55:23.893Z,5.61
2017-12-23T11:57:50.268Z,5.52
2017-12-23T12:00:16.683Z,5.43
2017-12-23T12:02:44.142Z,5.54
2017-12-23T12:05:10.566Z,5.65
2017-12-23T12:07:37.013Z,5.60
2017-12-23T12:10:03.442Z,5.63
2017-12-23T12:12:29.830Z,5.53
2017-12-23T12:14:56.346Z,5.39
2017-12-23T12:17:22.576Z,5.51
2017-12-23T12:19:48.807Z,5.53
2017-12-23T12:22:14.972Z,5.57
2017-12-23T12:24:41.207Z,5.51
2017-12-23T12:27:07.441Z,5.47
2017-12-23T12:29:34.421Z,5.21
2017-12-23T12:32:00.675Z,5.40
2017-12-23T12:34:26.869Z,5.49
2017-12-23T12:36:53.666Z,5.48
2017-12-23T12:39:19.999Z,5.48
2017-12-23T12:41:46.217Z,5.43
2017-12-23T12:44:12.433Z,5.31
2017-12-23T12:46:39.534Z,5.31
2017-12-23T12:49:06.015Z,5.44
2017-12-23T12:51:32.467Z,5.57
2017-12-23T12:53:58.905Z,5.62
2017-12-23T12:56:25.324Z,5.60
2017-12-23T12:58:51.729Z,5.55
2017-12-23T13:01:18.189Z,5.44
2017-12-23T13:03:44.626Z,5.55
2017-12-23T13:06:11.029Z,5.45
2017-12-23T13:08:37.484Z,5.50
2017-12-23T13:11:03.926Z,5.48
2017-12-23T13:13:30.347Z,5.52
2017-12-23T13:15:56.777Z,5.49
2017-12-23T13:18:23.198Z,5.42
2017-12-23T13:20:50.230Z,5.59
2017-12-23T13:23:16.644Z,5.38
2017-12-23T13:25:43.033Z,5.41
2017-12-23T13:28:09.442Z,5.36
2017-12-23T13:30:35.885Z,5.35
2017-12-23T13:33:02.329Z,5.45
2017-12-23T13:35:28.774Z,5.61
2017-12-23T13:37:55.266Z,5.65
2017-12-23T13:40:21.680Z,5.62
2017-12-23T13:42:48.105Z,5.68
2017-12-23T13:45:14.531Z,5.67
2017-12-23T13:47:40.942Z,5.65
2017-12-23T13:50:07.403Z,5.68
2017-12-23T13:52:33.826Z,5.67
2017-12-23T13:55:00.216Z,5.57
2017-12-23T13:57:26.666Z,5.60
2017-12-23T13:59:53.121Z,5.62
2017-12-23T14:02:19.567Z,5.65
2017-12-23T14:04:45.999Z,5.56
2017-12-23T14:07:12.430Z,5.42
2017-12-23T14:09:38.816Z,5.54
2017-12-23T14:12:05.852Z,5.56
2017-12-23T14:14:32.471Z,5.56
2017-12-23T14:16:58.848Z,5.61
2017-12-23T14:19:25.314Z,5.63
2017-12-23T14:21:51.603Z,5.56
2017-12-23T14:24:17.807Z,5.55
2017-12-23T14:26:44.018Z,5.53
2017-12-23T14:29:10.232Z,5.50
2017-12-23T14:31:36.459Z,5.49
2017-12-23T14:34:02.648Z,5.45
2017-12-23T14:36:28.860Z,5.43
2017-12-23T14:38:55.123Z,5.35
2017-12-23T14:41:21.338Z,5.33
2017-12-23T14:43:47.629Z,5.32
2017-12-23T14:46:13.850Z,5.32
2017-12-23T14:48:40.035Z,5.14
2017-12-23T14:51:06.307Z,5.22
2017-12-23T14:53:32.464Z,5.04
2017-12-23T14:55:58.660Z,5.19
2017-12-23T14:58:24.849Z,5.24
2017-12-23T15:00:51.058Z,5.24
2017-12-23T15:03:17.252Z,5.21
2017-12-23T15:05:43.501Z,5.18
2017-12-23T15:08:09.736Z,5.08
2017-12-23T15:10:35.973Z,5.07
2017-12-23T15:13:02.184Z,5.04
2017-12-23T15:15:28.417Z,5.04
2017-12-23T15:17:54.678Z,5.00
2017-12-23T15:20:20.933Z,4.94
2017-12-23T15:22:47.124Z,4.89
2017-12-23T15:25:13.361Z,4.87
2017-12-23T15:27:39.561Z,4.90
2017-12-23T15:30:05.792Z,4.89
2017-12-23T15:32:31.992Z,4.87
2017-12-23T15:34:58.212Z,4.86
2017-12-23T15:37:24.360Z,4.88
2017-12-23T15:39:50.566Z,4.90
2017-12-23T15:42:16.776Z,4.87
2017-12-23T15:44:42.959Z,4.90
2017-12-23T15:47:09.613Z,4.91
2017-12-23T15:49:35.969Z,4.94
2017-12-23T15:52:02.157Z,4.98
2017-12-23T15:54:28.357Z,4.97
2017-12-23T15:56:54.596Z,4.98
2017-12-23T15:59:20.776Z,4.93
2017-12-23T16:01:46.975Z,4.95
2017-12-23T16:04:13.197Z,4.93
2017-12-23T16:06:39.405Z,4.84
2017-12-23T16:09:05.593Z,4.87
2017-12-23T16:11:31.886Z,4.78
2017-12-23T16:13:58.128Z,4.79
2017-12-23T16:16:24.389Z,4.82
2017-12-23T16:18:50.693Z,4.82
2017-12-23T16:21:16.881Z,4.83
2017-12-23T16:23:43.089Z,4.80
2017-12-23T16:26:09.328Z,4.76
2017-12-23T16:28:36.449Z,4.79
2017-12-23T16:31:02.672Z,4.77
2017-12-23T16:33:28.877Z,4.77
2017-12-23T16:35:55.053Z,4.79
2017-12-23T16:38:21.261Z,4.76
2017-12-23T16:40:47.489Z,4.75
2017-12-23T16:43:13.782Z,4.70
2017-12-23T16:45:39.961Z,4.72
2017-12-23T16:48:06.217Z,4.70
2017-12-23T16:50:32.418Z,4.64
2017-12-23T16:52:58.593Z,4.62
2017-12-23T16:55:24.824Z,4.63
2017-12-23T16:57:51.093Z,4.60
2017-12-23T17:00:17.389Z,4.42
2017-12-23T17:02:43.653Z,4.46
2017-12-23T17:05:09.845Z,4.47
2017-12-23T17:07:36.072Z,4.36
2017-12-23T17:10:02.599Z,4.37
2017-12-23T17:12:28.827Z,4.41
2017-12-23T17:14:55.037Z,4.27
2017-12-23T17:17:21.249Z,4.38
2017-12-23T17:19:47.425Z,4.40
2017-12-23T17:22:13.633Z,4.33
2017-12-23T17:24:39.853Z,4.41
2017-12-23T17:27:06.049Z,4.36
2017-12-23T17:29:38.380Z,4.41
2017-12-23T17:32:04.620Z,4.35
2017-12-23T17:34:30.840Z,4.33
2017-12-23T17:36:57.393Z,4.24
2017-12-23T17:39:23.653Z,4.28
2017-12-23T17:41:49.825Z,4.31
2017-12-23T17:44:16.007Z,4.26
2017-12-23T17:46:42.268Z,4.27
2017-12-23T17:49:08.437Z,4.29
2017-12-23T17:51:35.472Z,4.30
2017-12-23T17:54:01.689Z,3.91
2017-12-23T17:56:27.892Z,3.96
2017-12-23T17:58:54.064Z,4.05
2017-12-23T18:01:20.286Z,3.90
2017-12-23T18:03:46.445Z,4.00
2017-12-23T18:06:12.601Z,4.04
2017-12-23T18:08:38.813Z,3.92
2017-12-23T18:11:05.385Z,4.00
2017-12-23T18:13:31.572Z,3.95
2017-12-23T18:15:57.804Z,3.95
2017-12-23T18:18:24.001Z,3.91
2017-12-23T18:20:50.172Z,3.91
2017-12-23T18:23:16.374Z,3.95
2017-12-23T18:25:42.653Z,3.78
2017-12-23T18:28:08.880Z,3.74
2017-12-23T18:30:35.078Z,3.79
2017-12-23T18:33:01.240Z,3.72
2017-12-23T18:35:27.421Z,3.72
2017-12-23T18:37:53.675Z,3.81
2017-12-23T18:40:19.841Z,3.78
2017-12-23T18:42:46.044Z,3.85
2017-12-23T18:45:12.333Z,3.91
2017-12-23T18:47:38.514Z,3.78
2017-12-23T18:50:04.714Z,3.67
2017-12-23T18:52:30.960Z,3.67
2017-12-23T18:54:57.133Z,3.77
2017-12-23T18:57:23.684Z,3.82
2017-12-23T18:59:49.873Z,3.83
2017-12-23T19:02:16.035Z,3.76
2017-12-23T19:04:42.205Z,3.62
2017-12-23T19:07:08.466Z,3.70
2017-12-23T19:09:34.645Z,3.80
2017-12-23T19:12:00.813Z,3.72
2017-12-23T19:14:27.059Z,3.72
2017-12-23T19:16:53.317Z,3.65
2017-12-23T19:19:19.504Z,3.55
2017-12-23T19:21:45.768Z,3.64
2017-12-23T19:24:12.909Z,3.66
2017-12-23T19:26:39.130Z,3.70
2017-12-23T19:29:05.357Z,3.78
2017-12-23T19:31:31.517Z,3.74
2017-12-23T19:33:57.710Z,3.79
2017-12-23T19:36:23.949Z,3.74
2017-12-23T19:38:50.140Z,3.77
2017-12-23T19:41:16.295Z,3.87
2017-12-23T19:43:42.520Z,3.85
2017-12-23T19:46:08.723Z,3.78
2017-12-23T19:48:34.901Z,3.90
2017-12-23T19:51:01.150Z,3.85
2017-12-23T19:53:27.345Z,3.94
2017-12-23T19:55:53.544Z,3.95
2017-12-23T19:58:19.783Z,3.95
2017-12-23T20:00:46.028Z,3.93
2017-12-23T20:03:12.284Z,3.93
2017-12-23T20:05:38.577Z,3.83
2017-12-23T20:08:04.840Z,3.88
2017-12-23T20:10:31.035Z,3.87
2017-12-23T20:12:57.270Z,3.84
2017-12-23T20:15:23.465Z,3.88
2017-12-23T20:17:49.656Z,3.82
2017-12-23T20:20:15.832Z,3.81
2017-12-23T20:22:41.997Z,3.80
2017-12-23T20:25:08.176Z,3.80
2017-12-23T20:27:34.413Z,3.85
2017-12-23T20:30:00.589Z,3.83
2017-12-23T20:32:26.757Z,3.93
2017-12-23T20:34:53.012Z,3.85
2017-12-23T20:37:19.186Z,3.74
2017-12-23T20:39:45.353Z,3.73
2017-12-23T20:42:11.559Z,3.80
2017-12-23T20:44:37.750Z,3.76
2017-12-23T20:47:03.907Z,3.81
2017-12-23T20:49:30.096Z,3.86
2017-12-23T20:51:56.260Z,3.80
2017-12-23T20:54:22.442Z,3.90
2017-12-23T20:56:48.656Z,3.93
2017-12-23T20:59:14.814Z,3.87
2017-12-23T21:01:41.064Z,3.86
2017-12-23T21:04:07.289Z,3.87
2017-12-23T21:06:33.553Z,3.87
2017-12-23T21:08:59.772Z,3.91
2017-12-23T21:11:25.994Z,3.86
2017-12-23T21:13:52.153Z,3.91
2017-12-23T21:16:18.316Z,3.83
2017-12-23T21:18:44.541Z,3.79
2017-12-23T21:21:10.725Z,3.74
2017-12-23T21:23:36.896Z,3.76
2017-12-23T21:26:03.102Z,3.79
2017-12-23T21:28:29.254Z,3.77
2017-12-23T21:30:55.424Z,3.81
2017-12-23T21:33:21.611Z,3.85
2017-12-23T21:35:47.786Z,3.74
2017-12-23T21:38:13.945Z,3.76
2017-12-23T21:40:40.141Z,3.76
2017-12-23T21:43:06.297Z,3.76
2017-12-23T21:45:32.462Z,3.78
2017-12-23T21:47:58.671Z,3.70
2017-12-23T21:50:24.861Z,3.62
2017-12-23T21:52:51.090Z,3.58
2017-12-23T21:55:17.296Z,3.57
2017-12-23T21:57:43.467Z,3.35
2017-12-23T22:00:09.649Z,3.53
2017-12-23T22:02:35.900Z,3.49
2017-12-23T22:05:02.425Z,3.35
2017-12-23T22:07:28.609Z,3.40
2017-12-23T22:09:54.794Z,3.31
2017-12-23T22:12:20.978Z,3.21
2017-12-23T22:14:47.147Z,3.19
2017-12-23T22:17:13.492Z,3.17
2017-12-23T22:19:39.706Z,3.25
2017-12-23T22:22:06.310Z,3.32
2017-12-23T22:24:32.568Z,3.36
2017-12-23T22:26:58.756Z,3.31
2017-12-23T22:29:24.968Z,3.26
2017-12-23T22:31:51.190Z,3.21
2017-12-23T22:34:17.387Z,3.32
2017-12-23T22:36:43.601Z,3.33
2017-12-23T22:39:09.906Z,3.36
2017-12-23T22:41:36.073Z,3.39
2017-12-23T22:44:02.190Z,3.41
2017-12-23T22:46:28.429Z,3.29
2017-12-23T22:48:54.592Z,3.38
2017-12-23T22:51:20.809Z,3.38
2017-12-23T22:53:47.055Z,3.37
2017-12-23T22:56:13.217Z,3.42
2017-12-23T22:58:39.417Z,3.45
2017-12-23T23:01:05.652Z,3.48
2017-12-23T23:03:32.067Z,3.41
2017-12-23T23:05:58.227Z,3.34
2017-12-23T23:08:24.479Z,3.34
2017-12-23T23:10:50.642Z,3.20
2017-12-23T23:13:16.879Z,3.19
2017-12-23T23:15:43.101Z,3.09
2017-12-23T23:18:09.350Z,3.17
2017-12-23T23:20:35.505Z,3.22
2017-12-23T23:23:01.812Z,3.17
2017-12-23T23:25:28.025Z,3.26
2017-12-23T23:27:54.185Z,3.25
2017-12-23T23:30:20.459Z,3.24
2017-12-23T23:32:46.673Z,3.23
2017-12-23T23:35:12.910Z,3.23
2017-12-23T23:37:39.202Z,3.17
2017-12-23T23:40:05.388Z,3.14
2017-12-23T23:42:31.595Z,3.04
2017-12-23T23:44:57.806Z,2.99
2017-12-23T23:47:23.966Z,2.94
2017-12-23T23:49:50.159Z,2.93
2017-12-23T23:52:16.404Z,3.02
2017-12-23T23:54:42.575Z,2.94
2017-12-23T23:57:08.946Z,2.94
2017-12-23T23:59:35.528Z,2.95
